createdAt,value
2019-03-09T00:00:50.649Z,7.50
2019-03-09T00:03:19.937Z,9.83
2019-03-09T00:05:49.224Z,6.75
2019-03-09T00:08:18.862Z,8.08
2019-03-09T00:10:48.183Z,7.83
2019-03-09T00:13:17.759Z,6.43
2019-03-09T00:15:47.388Z,9.40
2019-03-09T00:18:16.947Z,6.97
2019-03-09T00:20:46.245Z,6.90
2019-03-09T00:23:33.430Z,6.78
2019-03-09T00:26:10.125Z,5.10
2019-03-09T00:28:41.038Z,5.62
2019-03-09T00:31:25.472Z,8.78
2019-03-09T00:33:55.896Z,6.30
2019-03-09T00:36:25.194Z,11.12
2019-03-09T00:38:54.479Z,3.70
2019-03-09T00:41:24.100Z,6.42
2019-03-09T00:43:53.382Z,3.70
2019-03-09T00:46:22.681Z,2.70
2019-03-09T00:48:51.961Z,7.28
2019-03-09T00:51:21.243Z,10.47
2019-03-09T00:53:50.806Z,5.83
2019-03-09T00:56:20.149Z,7.77
2019-03-09T00:58:49.728Z,4.90
2019-03-09T01:01:19.029Z,10.08
2019-03-09T01:03:48.312Z,10.47
2019-03-09T01:06:18.501Z,5.83
2019-03-09T01:08:47.778Z,6.92
2019-03-09T01:11:17.069Z,4.47
2019-03-09T01:13:46.656Z,7.47
2019-03-09T01:16:16.111Z,9.17
2019-03-09T01:18:45.387Z,5.47
2019-03-09T01:21:14.684Z,6.58
2019-03-09T01:23:44.272Z,8.50
2019-03-09T01:26:13.587Z,6.40
2019-03-09T01:28:42.851Z,7.03
2019-03-09T01:31:12.138Z,9.30
2019-03-09T01:33:41.419Z,6.53
2019-03-09T01:36:10.735Z,10.55
2019-03-09T01:38:40.087Z,8.05
2019-03-09T01:41:09.684Z,8.85
2019-03-09T01:43:39.294Z,12.70
2019-03-09T01:46:08.612Z,9.20
2019-03-09T01:48:38.213Z,8.18
2019-03-09T01:51:07.920Z,5.40
2019-03-09T01:53:37.199Z,7.28
2019-03-09T01:56:06.474Z,6.65
2019-03-09T01:58:35.758Z,7.12
2019-03-09T02:01:05.134Z,6.37
2019-03-09T02:03:34.715Z,4.90
2019-03-09T02:06:04.039Z,9.08
2019-03-09T02:08:33.334Z,6.75
2019-03-09T02:11:02.603Z,6.92
2019-03-09T02:13:31.895Z,10.78
2019-03-09T02:16:01.188Z,8.68
2019-03-09T02:18:30.472Z,6.35
2019-03-09T02:20:59.762Z,6.83
2019-03-09T02:23:29.329Z,6.72
2019-03-09T02:25:58.941Z,6.15
2019-03-09T02:28:28.237Z,9.28
2019-03-09T02:30:57.560Z,5.75
2019-03-09T02:33:26.919Z,13.45
2019-03-09T02:35:56.211Z,7.60
2019-03-09T02:38:29.887Z,7.20
2019-03-09T02:40:59.155Z,6.40
2019-03-09T02:43:28.468Z,4.62
2019-03-09T02:45:58.055Z,7.62
2019-03-09T02:48:27.353Z,5.03
2019-03-09T02:50:56.638Z,5.70
2019-03-09T02:53:26.698Z,4.72
2019-03-09T02:55:56.158Z,5.75
2019-03-09T02:58:25.448Z,6.40
2019-03-09T03:00:56.639Z,5.85
2019-03-09T03:03:25.929Z,2.75
2019-03-09T03:05:55.529Z,6.53
2019-03-09T03:08:25.140Z,3.98
2019-03-09T03:10:54.761Z,5.17
2019-03-09T03:13:24.296Z,4.15
2019-03-09T03:15:53.580Z,3.72
2019-03-09T03:18:22.875Z,6.08
2019-03-09T03:20:52.148Z,2.12
2019-03-09T03:23:21.495Z,2.95
2019-03-09T03:25:50.909Z,4.10
2019-03-09T03:28:20.492Z,3.08
2019-03-09T03:30:49.771Z,4.17
2019-03-09T03:33:19.309Z,5.55
2019-03-09T03:35:48.611Z,2.40
2019-03-09T03:38:17.863Z,3.15
2019-03-09T03:40:47.488Z,7.50
2019-03-09T03:43:16.784Z,4.47
2019-03-09T03:45:46.424Z,3.70
2019-03-09T03:48:16.007Z,6.35
2019-03-09T03:50:45.307Z,5.40
2019-03-09T03:53:14.572Z,7.60
2019-03-09T03:55:44.112Z,6.62
2019-03-09T03:58:13.564Z,5.60
2019-03-09T04:00:42.851Z,6.95
2019-03-09T04:03:12.149Z,5.87
2019-03-09T04:05:41.427Z,5.03
2019-03-09T04:08:11.020Z,5.58
2019-03-09T04:10:40.628Z,6.05
2019-03-09T04:13:10.085Z,10.72
2019-03-09T04:15:39.372Z,6.05
2019-03-09T04:18:08.960Z,4.37
2019-03-09T04:20:38.251Z,3.95
2019-03-09T04:23:07.551Z,4.78
2019-03-09T04:25:36.942Z,4.58
2019-03-09T04:28:06.398Z,4.10
2019-03-09T04:30:35.972Z,3.90
2019-03-09T04:33:05.563Z,3.17
2019-03-09T04:35:35.180Z,3.40
2019-03-09T04:38:04.462Z,3.55
2019-03-09T04:40:33.748Z,4.30
2019-03-09T04:43:03.036Z,5.05
2019-03-09T04:45:32.339Z,4.78
2019-03-09T04:48:01.606Z,3.75
2019-03-09T04:50:30.909Z,5.08
2019-03-09T04:53:00.192Z,5.10
2019-03-09T04:55:29.489Z,4.85
2019-03-09T04:57:59.083Z,5.37
2019-03-09T05:00:28.398Z,4.45
2019-03-09T05:02:57.679Z,5.03
2019-03-09T05:05:27.314Z,5.08
2019-03-09T05:08:02.850Z,4.90
2019-03-09T05:10:40.991Z,6.05
2019-03-09T05:13:19.767Z,5.62
2019-03-09T05:15:49.064Z,6.83
2019-03-09T05:18:18.350Z,6.33
2019-03-09T05:20:47.883Z,6.60
2019-03-09T05:23:17.177Z,7.10
2019-03-09T05:25:46.802Z,6.72
2019-03-09T05:28:16.086Z,8.35
2019-03-09T05:30:47.031Z,9.10
2019-03-09T05:33:16.646Z,8.88
2019-03-09T05:35:46.356Z,8.85
2019-03-09T05:38:15.869Z,7.45
2019-03-09T05:40:45.174Z,10.80
2019-03-09T05:43:14.485Z,6.65
2019-03-09T05:45:43.792Z,9.05
2019-03-09T05:48:13.079Z,9.30
2019-03-09T05:50:42.668Z,10.53
2019-03-09T05:53:20.144Z,7.37
2019-03-09T05:55:49.667Z,10.60
2019-03-09T05:58:19.281Z,9.00
2019-03-09T06:00:48.572Z,11.15
2019-03-09T06:03:17.858Z,11.90
2019-03-09T06:05:48.795Z,10.63
2019-03-09T06:08:18.161Z,10.18
2019-03-09T06:10:47.893Z,11.95
2019-03-09T06:13:17.245Z,11.30
2019-03-09T06:15:46.796Z,9.27
2019-03-09T06:18:16.353Z,13.65
2019-03-09T06:20:45.635Z,11.63
2019-03-09T06:23:14.921Z,12.93
2019-03-09T06:25:44.453Z,15.93
2019-03-09T06:28:13.758Z,12.95
2019-03-09T06:30:43.053Z,14.18
2019-03-09T06:33:26.081Z,14.33
2019-03-09T06:36:01.538Z,13.58
2019-03-09T06:39:05.267Z,14.55
2019-03-09T06:41:46.452Z,14.33
2019-03-09T06:44:16.018Z,19.20
2019-03-09T06:46:45.628Z,14.27
2019-03-09T06:49:14.940Z,15.43
2019-03-09T06:51:44.225Z,14.10
2019-03-09T06:54:13.592Z,14.37
2019-03-09T06:56:42.892Z,14.00
2019-03-09T06:59:12.196Z,12.70
2019-03-09T07:01:41.489Z,13.45
2019-03-09T07:04:11.031Z,12.17
2019-03-09T07:06:40.319Z,15.90
2019-03-09T07:09:09.608Z,13.40
2019-03-09T07:11:38.890Z,15.37
2019-03-09T07:14:43.224Z,15.73
2019-03-09T07:17:12.503Z,14.83
2019-03-09T07:19:41.795Z,10.30
2019-03-09T07:22:11.077Z,9.13
2019-03-09T07:24:40.379Z,13.90
2019-03-09T07:27:09.659Z,8.80
2019-03-09T07:29:38.956Z,12.37
2019-03-09T07:32:08.566Z,10.95
2019-03-09T07:34:38.175Z,9.27
2019-03-09T07:37:07.469Z,9.88
2019-03-09T07:39:36.792Z,10.27
2019-03-09T07:42:06.082Z,12.95
2019-03-09T07:44:35.369Z,10.27
2019-03-09T07:47:04.647Z,11.70
2019-03-09T07:49:33.941Z,16.70
2019-03-09T07:52:06.573Z,25.90
2019-03-09T07:54:35.869Z,17.13
2019-03-09T07:57:05.151Z,12.03
2019-03-09T07:59:34.436Z,9.73
2019-03-09T08:02:03.728Z,7.13
2019-03-09T08:04:33.268Z,8.17
2019-03-09T08:07:02.882Z,10.40
2019-03-09T08:09:32.505Z,13.17
2019-03-09T08:12:01.803Z,11.90
2019-03-09T08:14:31.319Z,7.43
2019-03-09T08:17:00.619Z,10.37
2019-03-09T08:19:29.884Z,7.70
2019-03-09T08:21:59.246Z,9.90
2019-03-09T08:24:28.526Z,11.30
2019-03-09T08:26:58.101Z,18.30
2019-03-09T08:29:27.745Z,11.10
2019-03-09T08:31:57.035Z,8.43
2019-03-09T08:34:26.623Z,9.40
2019-03-09T08:36:55.927Z,7.77
2019-03-09T08:39:25.182Z,10.33
2019-03-09T08:41:54.491Z,8.87
2019-03-09T08:44:23.776Z,8.33
2019-03-09T08:46:53.335Z,11.00
2019-03-09T08:49:22.624Z,8.00
2019-03-09T08:51:52.239Z,7.77
2019-03-09T08:54:21.857Z,7.80
2019-03-09T08:56:51.143Z,9.30
2019-03-09T08:59:20.466Z,10.40
2019-03-09T09:01:50.095Z,7.10
2019-03-09T09:04:19.668Z,7.63
2019-03-09T09:06:48.951Z,5.33
2019-03-09T09:09:18.240Z,10.43
2019-03-09T09:11:47.561Z,10.20
2019-03-09T09:14:16.840Z,6.17
2019-03-09T09:16:46.127Z,5.40
2019-03-09T09:19:15.424Z,8.27
2019-03-09T09:21:44.696Z,6.43
2019-03-09T09:24:14.000Z,7.83
2019-03-09T09:26:44.613Z,10.67
2019-03-09T09:29:13.903Z,6.40
2019-03-09T09:31:43.190Z,7.33
2019-03-09T09:34:12.497Z,6.37
2019-03-09T09:36:41.767Z,4.90
2019-03-09T09:39:11.088Z,10.57
2019-03-09T09:41:40.545Z,6.93
2019-03-09T09:44:09.840Z,5.10
2019-03-09T09:46:39.124Z,8.03
2019-03-09T09:49:08.457Z,6.63
2019-03-09T09:51:38.025Z,5.83
2019-03-09T09:54:07.311Z,8.20
2019-03-09T09:56:36.609Z,6.20
2019-03-09T09:59:05.909Z,5.73
2019-03-09T10:01:35.253Z,12.60
2019-03-09T10:04:05.043Z,5.63
2019-03-09T10:06:34.520Z,7.20
2019-03-09T10:09:05.456Z,5.00
2019-03-09T10:11:36.373Z,3.27
2019-03-09T10:14:05.727Z,6.40
2019-03-09T10:16:35.331Z,12.70
2019-03-09T10:19:04.637Z,5.30
2019-03-09T10:21:33.925Z,6.33
2019-03-09T10:24:03.227Z,7.77
2019-03-09T10:26:32.507Z,5.77
2019-03-09T10:29:01.796Z,5.40
2019-03-09T10:31:31.094Z,8.23
2019-03-09T10:34:00.392Z,4.93
2019-03-09T10:36:29.665Z,4.90
2019-03-09T10:38:59.250Z,5.90
2019-03-09T10:41:28.533Z,8.43
2019-03-09T10:43:58.077Z,8.90
2019-03-09T10:46:27.364Z,6.67
2019-03-09T10:48:56.664Z,7.00
2019-03-09T10:51:26.011Z,8.83
2019-03-09T10:53:55.561Z,5.00
2019-03-09T10:56:25.193Z,10.40
2019-03-09T10:58:54.484Z,7.97
2019-03-09T11:01:24.075Z,5.07
2019-03-09T11:03:53.695Z,6.87
2019-03-09T11:06:24.061Z,5.23
2019-03-09T11:08:53.351Z,6.10
2019-03-09T11:11:22.747Z,5.83
2019-03-09T11:13:52.391Z,7.00
2019-03-09T11:16:21.711Z,6.10
2019-03-09T11:18:50.988Z,7.50
2019-03-09T11:21:20.662Z,5.20
2019-03-09T11:23:50.391Z,3.60
2019-03-09T11:26:19.706Z,4.97
2019-03-09T11:28:49.001Z,3.67
2019-03-09T11:31:18.290Z,5.73
2019-03-09T11:33:47.576Z,4.80
2019-03-09T11:36:16.874Z,2.97
2019-03-09T11:38:46.163Z,4.83
2019-03-09T11:41:19.360Z,4.27
2019-03-09T11:43:46.744Z,5.10
2019-03-09T11:46:16.045Z,5.70
2019-03-09T11:48:45.603Z,3.00
2019-03-09T11:51:14.918Z,4.00
2019-03-09T11:53:44.231Z,8.87
2019-03-09T11:56:13.815Z,6.67
2019-03-09T11:58:43.347Z,6.03
2019-03-09T12:01:12.636Z,4.30
2019-03-09T12:03:41.924Z,4.17
2019-03-09T12:06:11.238Z,2.50
2019-03-09T12:08:40.540Z,4.07
2019-03-09T12:11:09.826Z,2.10
2019-03-09T12:13:39.118Z,4.43
2019-03-09T12:16:08.744Z,4.33
2019-03-09T12:18:38.012Z,4.90
2019-03-09T12:21:07.642Z,2.90
2019-03-09T12:23:36.940Z,2.60
2019-03-09T12:26:06.563Z,9.40
2019-03-09T12:28:35.842Z,3.10
2019-03-09T12:31:06.506Z,1.40
2019-03-09T12:33:35.782Z,4.60
2019-03-09T12:36:05.075Z,8.73
2019-03-09T12:38:34.350Z,6.40
2019-03-09T12:41:03.655Z,7.80
2019-03-09T12:43:32.949Z,4.57
2019-03-09T12:46:02.605Z,10.63
2019-03-09T12:48:31.950Z,5.43
2019-03-09T12:51:01.502Z,3.77
2019-03-09T12:53:30.807Z,4.67
2019-03-09T12:56:00.434Z,5.87
2019-03-09T12:58:29.703Z,3.80
2019-03-09T13:00:58.993Z,3.20
2019-03-09T13:03:28.288Z,3.23
2019-03-09T13:05:58.539Z,1.60
2019-03-09T13:08:27.850Z,3.67
2019-03-09T13:10:57.458Z,2.10
2019-03-09T13:13:26.749Z,4.27
2019-03-09T13:15:56.063Z,2.80
2019-03-09T13:18:25.359Z,2.60
2019-03-09T13:20:54.654Z,1.83
2019-03-09T13:23:24.263Z,2.77
2019-03-09T13:25:53.876Z,4.93
2019-03-09T13:28:23.193Z,1.90
2019-03-09T13:30:52.480Z,4.37
2019-03-09T13:33:21.772Z,7.53
2019-03-09T13:35:51.073Z,4.10
2019-03-09T13:38:20.355Z,9.70
2019-03-09T13:40:49.648Z,5.70
2019-03-09T13:43:19.274Z,6.77
2019-03-09T13:45:48.897Z,10.50
2019-03-09T13:48:18.510Z,10.87
2019-03-09T13:50:48.033Z,7.77
2019-03-09T13:53:17.336Z,7.27
2019-03-09T13:55:46.660Z,10.13
2019-03-09T13:58:15.967Z,14.27
2019-03-09T14:00:45.520Z,11.37
2019-03-09T14:03:15.129Z,7.80
2019-03-09T14:05:44.741Z,11.90
2019-03-09T14:08:14.341Z,9.87
2019-03-09T14:10:43.630Z,12.27
2019-03-09T14:13:13.077Z,9.53
2019-03-09T14:15:42.662Z,14.93
2019-03-09T14:18:11.954Z,10.10
2019-03-09T14:20:41.244Z,12.40
2019-03-09T14:23:10.565Z,19.23
2019-03-09T14:25:40.410Z,14.73
2019-03-09T14:28:09.724Z,16.97
2019-03-09T14:30:39.278Z,17.87
2019-03-09T14:33:08.589Z,22.10
2019-03-09T14:35:37.953Z,16.80
2019-03-09T14:38:07.268Z,14.77
2019-03-09T14:40:36.569Z,22.03
2019-03-09T14:43:05.852Z,15.03
2019-03-09T14:45:35.151Z,14.33
2019-03-09T14:48:04.445Z,12.83
2019-03-09T14:50:33.743Z,15.33
2019-03-09T14:53:03.031Z,12.30
2019-03-09T14:55:32.591Z,11.67
2019-03-09T14:58:01.880Z,14.23
2019-03-09T15:00:31.175Z,21.20
2019-03-09T15:03:00.467Z,19.60
2019-03-09T15:05:29.763Z,21.27
2019-03-09T15:07:59.327Z,26.10
2019-03-09T15:10:28.670Z,24.53
2019-03-09T15:12:58.225Z,20.73
2019-03-09T15:15:27.514Z,11.43
2019-03-09T15:17:56.813Z,27.03
2019-03-09T15:20:26.103Z,23.70
2019-03-09T15:22:55.392Z,19.20
2019-03-09T15:25:24.692Z,17.27
2019-03-09T15:27:53.984Z,19.27
2019-03-09T15:30:23.355Z,20.77
2019-03-09T15:32:52.643Z,12.90
2019-03-09T15:35:22.215Z,17.47
2019-03-09T15:37:51.513Z,19.63
2019-03-09T15:40:21.439Z,15.23
2019-03-09T15:42:50.722Z,13.77
2019-03-09T15:45:21.017Z,14.33
2019-03-09T15:47:50.286Z,17.53
2019-03-09T15:50:22.245Z,24.43
2019-03-09T15:52:51.532Z,16.33
2019-03-09T15:55:20.908Z,23.50
2019-03-09T15:57:50.268Z,20.80
2019-03-09T16:00:21.571Z,17.00
2019-03-09T16:02:50.910Z,19.20
2019-03-09T16:05:20.316Z,21.30
2019-03-09T16:07:49.838Z,21.33
2019-03-09T16:10:20.404Z,15.67
2019-03-09T16:12:49.944Z,16.67
2019-03-09T16:15:19.756Z,20.70
2019-03-09T16:17:49.354Z,12.17
2019-03-09T16:20:23.981Z,11.03
2019-03-09T16:22:53.264Z,20.80
2019-03-09T16:25:22.631Z,19.67
2019-03-09T16:27:51.920Z,23.50
2019-03-09T16:30:22.370Z,19.67
2019-03-09T16:32:51.679Z,18.77
2019-03-09T16:35:20.974Z,16.53
2019-03-09T16:37:51.615Z,13.90
2019-03-09T16:40:22.450Z,12.47
2019-03-09T16:42:51.752Z,11.80
2019-03-09T16:45:21.387Z,12.33
2019-03-09T16:47:50.951Z,21.97
2019-03-09T16:50:20.610Z,14.57
2019-03-09T16:52:49.975Z,15.37
2019-03-09T16:55:19.267Z,19.60
2019-03-09T16:57:48.559Z,10.63
2019-03-09T17:00:22.265Z,17.43
2019-03-09T17:02:51.592Z,12.20
2019-03-09T17:05:20.866Z,7.80
2019-03-09T17:07:50.156Z,5.00
2019-03-09T17:10:19.666Z,8.10
2019-03-09T17:12:49.098Z,8.53
2019-03-09T17:15:23.724Z,5.80
2019-03-09T17:17:53.134Z,7.83
2019-03-09T17:20:22.487Z,4.75
2019-03-09T17:22:51.782Z,7.28
2019-03-09T17:25:21.069Z,5.53
2019-03-09T17:27:50.367Z,3.37
2019-03-09T17:30:20.682Z,12.80
2019-03-09T17:32:50.339Z,9.10
2019-03-09T17:35:19.666Z,6.50
2019-03-09T17:37:49.307Z,5.50
2019-03-09T17:40:18.597Z,5.70
2019-03-09T17:42:48.172Z,8.00
2019-03-09T17:45:27.957Z,7.83
2019-03-09T17:47:57.247Z,5.87
2019-03-09T17:50:27.062Z,6.55
2019-03-09T17:52:56.365Z,4.65
2019-03-09T17:55:25.665Z,12.20
2019-03-09T17:57:55.288Z,10.53
2019-03-09T18:00:41.852Z,7.72
2019-03-09T18:03:02.586Z,16.23
2019-03-09T18:05:32.189Z,7.00
2019-03-09T18:08:01.482Z,7.25
2019-03-09T18:10:43.262Z,6.95
2019-03-09T18:13:12.625Z,9.63
2019-03-09T18:15:42.157Z,12.88
2019-03-09T18:18:11.708Z,9.60
2019-03-09T18:20:40.982Z,15.17
2019-03-09T18:23:10.617Z,9.60
2019-03-09T18:25:39.914Z,6.70
2019-03-09T18:28:09.207Z,10.30
2019-03-09T18:30:38.821Z,11.22
2019-03-09T18:33:08.128Z,14.33
2019-03-09T18:35:37.429Z,16.97
2019-03-09T18:38:06.734Z,11.78
2019-03-09T18:40:36.024Z,12.58
2019-03-09T18:43:05.307Z,8.80
2019-03-09T18:45:34.589Z,13.37
2019-03-09T18:48:04.131Z,14.20
2019-03-09T18:50:33.742Z,8.43
2019-03-09T18:53:03.040Z,12.28
2019-03-09T18:55:32.351Z,10.28
2019-03-09T18:58:01.952Z,13.78
2019-03-09T19:00:31.252Z,13.90
2019-03-09T19:03:00.553Z,11.57
2019-03-09T19:05:30.161Z,13.13
2019-03-09T19:07:59.504Z,13.20
2019-03-09T19:10:28.864Z,11.65
2019-03-09T19:12:58.481Z,28.87
2019-03-09T19:15:27.767Z,14.17
2019-03-09T19:17:57.380Z,50.23
2019-03-09T19:20:26.720Z,30.97
2019-03-09T19:22:56.269Z,29.70
2019-03-09T19:25:25.894Z,23.33
2019-03-09T19:27:55.210Z,15.93
2019-03-09T19:30:24.513Z,24.23
2019-03-09T19:33:00.327Z,17.73
2019-03-09T19:35:25.567Z,13.75
2019-03-09T19:37:55.967Z,14.55
2019-03-09T19:40:25.277Z,16.02
2019-03-09T19:42:54.554Z,19.42
2019-03-09T19:45:23.842Z,17.42
2019-03-09T19:47:53.871Z,12.13
2019-03-09T19:50:26.135Z,14.40
2019-03-09T19:52:55.688Z,12.25
2019-03-09T19:55:24.991Z,13.05
2019-03-09T19:57:54.285Z,12.95
2019-03-09T20:00:23.579Z,14.53
2019-03-09T20:02:52.868Z,21.07
2019-03-09T20:05:22.162Z,13.62
2019-03-09T20:07:51.690Z,11.30
2019-03-09T20:10:22.470Z,13.50
2019-03-09T20:12:52.041Z,8.95
2019-03-09T20:15:21.537Z,11.48
2019-03-09T20:17:50.808Z,15.25
2019-03-09T20:20:21.267Z,9.75
2019-03-09T20:22:50.581Z,13.30
2019-03-09T20:25:19.858Z,10.93
2019-03-09T20:27:49.143Z,12.10
2019-03-09T20:30:20.684Z,10.50
2019-03-09T20:32:49.967Z,13.13
2019-03-09T20:35:20.260Z,10.85
2019-03-09T20:37:49.550Z,10.58
2019-03-09T20:40:18.843Z,8.93
2019-03-09T20:42:48.460Z,7.85
2019-03-09T20:45:22.841Z,11.33
2019-03-09T20:47:52.793Z,9.80
2019-03-09T20:50:24.250Z,7.67
2019-03-09T20:52:53.528Z,5.58
2019-03-09T20:55:23.157Z,7.95
2019-03-09T20:57:52.446Z,9.10
2019-03-09T21:00:22.781Z,8.38
2019-03-09T21:02:52.390Z,6.55
2019-03-09T21:05:21.688Z,5.25
2019-03-09T21:07:51.289Z,5.58
2019-03-09T21:10:21.817Z,8.80
2019-03-09T21:13:05.692Z,13.63
2019-03-09T21:15:35.287Z,13.40
2019-03-09T21:18:05.096Z,5.35
2019-03-09T21:20:34.377Z,5.67
2019-03-09T21:23:03.660Z,6.78
2019-03-09T21:25:33.304Z,9.38
2019-03-09T21:28:02.599Z,6.35
2019-03-09T21:30:32.217Z,6.67
2019-03-09T21:33:01.505Z,3.97
2019-03-09T21:35:30.848Z,5.23
2019-03-09T21:38:00.414Z,10.80
2019-03-09T21:40:29.708Z,12.53
2019-03-09T21:42:59.320Z,9.60
2019-03-09T21:45:28.613Z,9.60
2019-03-09T21:47:57.898Z,7.47
2019-03-09T21:50:27.193Z,7.83
2019-03-09T21:52:56.487Z,8.98
2019-03-09T21:55:25.770Z,7.70
2019-03-09T21:57:55.345Z,14.20
2019-03-09T22:00:24.951Z,9.20
2019-03-09T22:02:54.561Z,6.30
2019-03-09T22:05:23.870Z,5.90
2019-03-09T22:07:55.611Z,9.58
2019-03-09T22:10:24.725Z,13.50
2019-03-09T22:12:54.326Z,9.78
2019-03-09T22:15:23.598Z,9.13
2019-03-09T22:17:53.224Z,10.40
2019-03-09T22:20:22.834Z,8.83
2019-03-09T22:22:52.128Z,7.93
2019-03-09T22:25:21.415Z,10.20
2019-03-09T22:27:51.049Z,13.13
2019-03-09T22:30:23.721Z,8.47
2019-03-09T22:32:53.116Z,8.10
2019-03-09T22:35:22.739Z,19.40
2019-03-09T22:37:52.321Z,11.18
2019-03-09T22:40:21.603Z,16.20
2019-03-09T22:42:51.260Z,18.32
2019-03-09T22:45:20.565Z,11.20
2019-03-09T22:47:49.865Z,12.58
2019-03-09T22:50:20.700Z,16.17
2019-03-09T22:52:50.472Z,17.43
2019-03-09T22:55:19.764Z,25.55
2019-03-09T22:57:49.420Z,20.23
2019-03-09T23:00:27.220Z,15.00
2019-03-09T23:02:58.131Z,23.42
2019-03-09T23:05:27.594Z,21.95
2019-03-09T23:07:56.891Z,12.80
2019-03-09T23:10:28.283Z,20.93
2019-03-09T23:12:57.571Z,27.87
2019-03-09T23:15:28.546Z,22.27
2019-03-09T23:17:57.906Z,25.80
2019-03-09T23:20:27.466Z,23.33
2019-03-09T23:22:57.120Z,31.50
2019-03-09T23:25:26.408Z,26.57
2019-03-09T23:27:55.708Z,39.60
2019-03-09T23:30:24.995Z,29.50
2019-03-09T23:32:54.320Z,30.68
2019-03-09T23:35:23.604Z,40.07
2019-03-09T23:37:53.198Z,29.37
2019-03-09T23:40:23.922Z,24.63
2019-03-09T23:42:53.214Z,28.50
2019-03-09T23:45:29.206Z,28.17
2019-03-09T23:47:58.503Z,27.13
2019-03-09T23:50:28.096Z,23.97
2019-03-09T23:52:57.546Z,30.77
2019-03-09T23:55:27.192Z,31.23
2019-03-09T23:57:56.816Z,33.63
